Terminal Aerodrome Forecast
Issued by NWS

Home | Current Version | Previous Version | Text Only | Print | Product List | Glossary On
Versions: 1 2 3 4 5 6 7 8 9 10 11 12 13 14 15 16 17 18 19 20 21 22 23 24 25 26 27 28 29 30 31 32 33 34 35 36 37 38 39 40 41 42
000
FTPQ31 PGUM 032018 RRM
TAFGRO
TAF
PGRO 032018Z 0320/0418 11009KT P6SM VCSH FEW018 SCT040 BKN140
      TEMPO 0320/0323 5SM SHRA SCT016 BKN030
     FM040000 12012G22KT P6SM VCSH FEW020 SCT040 BKN140=

USA.gov is the U.S. government's official web portal to all federal, state and local government web resources and services.